sensor_id;sensor_type;location;lat;lon;timestamp;P1;durP1;ratioP1;P2;durP2;ratioP2
54193;SDS011;40102;50.906;6.972;2023-10-09T00:02:02;16.60;;;7.93;;
54193;SDS011;40102;50.906;6.972;2023-10-09T00:04:31;17.20;;;7.15;;
54193;SDS011;40102;50.906;6.972;2023-10-09T00:06:56;13.20;;;7.50;;
54193;SDS011;40102;50.906;6.972;2023-10-09T00:09:24;18.70;;;7.68;;
54193;SDS011;40102;50.906;6.972;2023-10-09T00:11:50;15.35;;;7.78;;
54193;SDS011;40102;50.906;6.972;2023-10-09T00:14:22;14.23;;;7.03;;
54193;SDS011;40102;50.906;6.972;2023-10-09T00:16:50;17.95;;;7.82;;
54193;SDS011;40102;50.906;6.972;2023-10-09T00:19:21;16.40;;;7.25;;
54193;SDS011;40102;50.906;6.972;2023-10-09T00:21:55;12.18;;;6.25;;
54193;SDS011;40102;50.906;6.972;2023-10-09T00:24:23;17.00;;;6.75;;
54193;SDS011;40102;50.906;6.972;2023-10-09T00:26:49;15.45;;;6.53;;
54193;SDS011;40102;50.906;6.972;2023-10-09T00:29:21;13.05;;;6.10;;
54193;SDS011;40102;50.906;6.972;2023-10-09T00:31:55;11.80;;;6.13;;
54193;SDS011;40102;50.906;6.972;2023-10-09T00:34:30;12.65;;;5.85;;
54193;SDS011;40102;50.906;6.972;2023-10-09T00:37:05;12.07;;;5.78;;
54193;SDS011;40102;50.906;6.972;2023-10-09T00:39:47;10.55;;;5.15;;
54193;SDS011;40102;50.906;6.972;2023-10-09T00:42:20;9.27;;;4.63;;
54193;SDS011;40102;50.906;6.972;2023-10-09T00:44:55;8.52;;;4.82;;
54193;SDS011;40102;50.906;6.972;2023-10-09T00:47:29;8.95;;;4.68;;
54193;SDS011;40102;50.906;6.972;2023-10-09T00:50:00;9.55;;;4.90;;
54193;SDS011;40102;50.906;6.972;2023-10-09T00:52:40;8.20;;;4.57;;
54193;SDS011;40102;50.906;6.972;2023-10-09T00:55:14;10.98;;;4.80;;
54193;SDS011;40102;50.906;6.972;2023-10-09T00:57:46;10.80;;;5.65;;
54193;SDS011;40102;50.906;6.972;2023-10-09T01:00:22;10.63;;;5.35;;
54193;SDS011;40102;50.906;6.972;2023-10-09T01:03:01;9.52;;;5.20;;
54193;SDS011;40102;50.906;6.972;2023-10-09T01:05:56;11.00;;;5.22;;
54193;SDS011;40102;50.906;6.972;2023-10-09T01:11:06;9.07;;;5.18;;
54193;SDS011;40102;50.906;6.972;2023-10-09T01:13:37;10.48;;;5.05;;
54193;SDS011;40102;50.906;6.972;2023-10-09T01:16:06;8.35;;;4.57;;
54193;SDS011;40102;50.906;6.972;2023-10-09T01:18:38;14.55;;;6.03;;
54193;SDS011;40102;50.906;6.972;2023-10-09T01:21:08;9.35;;;4.90;;
54193;SDS011;40102;50.906;6.972;2023-10-09T01:23:41;9.45;;;4.80;;
54193;SDS011;40102;50.906;6.972;2023-10-09T01:28:58;9.27;;;4.93;;
54193;SDS011;40102;50.906;6.972;2023-10-09T01:31:25;8.70;;;4.53;;
54193;SDS011;40102;50.906;6.972;2023-10-09T01:33:51;11.50;;;5.43;;
54193;SDS011;40102;50.906;6.972;2023-10-09T01:36:18;9.88;;;5.47;;
54193;SDS011;40102;50.906;6.972;2023-10-09T01:38:56;11.38;;;5.55;;
54193;SDS011;40102;50.906;6.972;2023-10-09T01:41:26;13.65;;;5.72;;
54193;SDS011;40102;50.906;6.972;2023-10-09T01:43:52;11.50;;;5.60;;
54193;SDS011;40102;50.906;6.972;2023-10-09T01:46:25;12.38;;;6.10;;
54193;SDS011;40102;50.906;6.972;2023-10-09T01:48:51;12.07;;;5.35;;
54193;SDS011;40102;50.906;6.972;2023-10-09T01:51:18;13.57;;;5.68;;
54193;SDS011;40102;50.906;6.972;2023-10-09T01:53:45;12.43;;;6.45;;
54193;SDS011;40102;50.906;6.972;2023-10-09T01:58:41;9.63;;;4.67;;
54193;SDS011;40102;50.906;6.972;2023-10-09T02:01:07;10.63;;;5.47;;
54193;SDS011;40102;50.906;6.972;2023-10-09T02:03:32;8.88;;;4.70;;
54193;SDS011;40102;50.906;6.972;2023-10-09T02:06:01;8.70;;;4.72;;
54193;SDS011;40102;50.906;6.972;2023-10-09T02:08:28;7.25;;;4.53;;
54193;SDS011;40102;50.906;6.972;2023-10-09T02:11:00;8.57;;;4.70;;
54193;SDS011;40102;50.906;6.972;2023-10-09T02:13:27;10.10;;;4.88;;
54193;SDS011;40102;50.906;6.972;2023-10-09T02:15:59;7.18;;;4.20;;
54193;SDS011;40102;50.906;6.972;2023-10-09T02:21:08;11.77;;;4.55;;
54193;SDS011;40102;50.906;6.972;2023-10-09T02:23:34;9.52;;;5.15;;
54193;SDS011;40102;50.906;6.972;2023-10-09T02:26:12;9.68;;;5.03;;
54193;SDS011;40102;50.906;6.972;2023-10-09T02:28:54;11.13;;;5.18;;
54193;SDS011;40102;50.906;6.972;2023-10-09T02:31:30;11.43;;;5.28;;
54193;SDS011;40102;50.906;6.972;2023-10-09T02:34:05;8.50;;;4.22;;
54193;SDS011;40102;50.906;6.972;2023-10-09T02:36:32;8.20;;;4.38;;
54193;SDS011;40102;50.906;6.972;2023-10-09T02:39:03;7.13;;;3.88;;
54193;SDS011;40102;50.906;6.972;2023-10-09T02:41:32;8.18;;;4.38;;
54193;SDS011;40102;50.906;6.972;2023-10-09T02:43:59;8.27;;;4.20;;
54193;SDS011;40102;50.906;6.972;2023-10-09T02:46:35;8.85;;;4.45;;
54193;SDS011;40102;50.906;6.972;2023-10-09T02:49:01;7.38;;;4.45;;
54193;SDS011;40102;50.906;6.972;2023-10-09T02:51:31;7.57;;;4.35;;
54193;SDS011;40102;50.906;6.972;2023-10-09T02:54:06;10.23;;;5.10;;
54193;SDS011;40102;50.906;6.972;2023-10-09T02:56:33;9.55;;;4.20;;
54193;SDS011;40102;50.906;6.972;2023-10-09T02:59:06;8.93;;;4.78;;
54193;SDS011;40102;50.906;6.972;2023-10-09T03:01:32;9.65;;;4.60;;
54193;SDS011;40102;50.906;6.972;2023-10-09T03:04:00;7.43;;;4.32;;
54193;SDS011;40102;50.906;6.972;2023-10-09T03:06:27;9.45;;;4.38;;
54193;SDS011;40102;50.906;6.972;2023-10-09T03:08:58;8.95;;;4.95;;
54193;SDS011;40102;50.906;6.972;2023-10-09T03:11:24;7.32;;;4.20;;
54193;SDS011;40102;50.906;6.972;2023-10-09T03:13:51;7.25;;;4.13;;
54193;SDS011;40102;50.906;6.972;2023-10-09T03:16:17;7.82;;;3.90;;
54193;SDS011;40102;50.906;6.972;2023-10-09T03:18:47;7.32;;;4.00;;
54193;SDS011;40102;50.906;6.972;2023-10-09T03:21:14;8.40;;;4.18;;
54193;SDS011;40102;50.906;6.972;2023-10-09T03:23:40;6.85;;;4.28;;
54193;SDS011;40102;50.906;6.972;2023-10-09T03:26:06;7.53;;;4.28;;
54193;SDS011;40102;50.906;6.972;2023-10-09T03:28:33;9.38;;;4.30;;
54193;SDS011;40102;50.906;6.972;2023-10-09T03:30:58;9.43;;;4.60;;
54193;SDS011;40102;50.906;6.972;2023-10-09T03:33:27;9.30;;;4.82;;
54193;SDS011;40102;50.906;6.972;2023-10-09T03:35:59;9.55;;;4.85;;
54193;SDS011;40102;50.906;6.972;2023-10-09T03:38:25;7.30;;;4.28;;
54193;SDS011;40102;50.906;6.972;2023-10-09T03:40:54;8.73;;;4.03;;
54193;SDS011;40102;50.906;6.972;2023-10-09T03:43:19;7.38;;;4.22;;
54193;SDS011;40102;50.906;6.972;2023-10-09T03:45:46;9.88;;;4.45;;
54193;SDS011;40102;50.906;6.972;2023-10-09T03:48:18;8.32;;;4.57;;
54193;SDS011;40102;50.906;6.972;2023-10-09T03:50:51;9.95;;;4.68;;
54193;SDS011;40102;50.906;6.972;2023-10-09T03:53:38;12.85;;;5.10;;
54193;SDS011;40102;50.906;6.972;2023-10-09T03:56:07;10.65;;;5.22;;
54193;SDS011;40102;50.906;6.972;2023-10-09T03:58:41;12.52;;;4.93;;
54193;SDS011;40102;50.906;6.972;2023-10-09T04:01:09;11.07;;;5.18;;
54193;SDS011;40102;50.906;6.972;2023-10-09T04:03:55;9.23;;;4.70;;
54193;SDS011;40102;50.906;6.972;2023-10-09T04:06:25;9.82;;;5.32;;
54193;SDS011;40102;50.906;6.972;2023-10-09T04:08:55;10.60;;;4.75;;
54193;SDS011;40102;50.906;6.972;2023-10-09T04:11:23;13.50;;;5.03;;
54193;SDS011;40102;50.906;6.972;2023-10-09T04:13:49;11.27;;;5.03;;
54193;SDS011;40102;50.906;6.972;2023-10-09T04:16:17;11.10;;;4.93;;
54193;SDS011;40102;50.906;6.972;2023-10-09T04:18:55;12.50;;;5.05;;
54193;SDS011;40102;50.906;6.972;2023-10-09T04:21:24;9.15;;;4.88;;
54193;SDS011;40102;50.906;6.972;2023-10-09T04:23:59;9.13;;;4.88;;
54193;SDS011;40102;50.906;6.972;2023-10-09T04:26:34;9.77;;;4.45;;
54193;SDS011;40102;50.906;6.972;2023-10-09T04:29:00;7.75;;;4.60;;
54193;SDS011;40102;50.906;6.972;2023-10-09T04:31:27;10.93;;;4.95;;
54193;SDS011;40102;50.906;6.972;2023-10-09T04:33:57;9.63;;;4.75;;
54193;SDS011;40102;50.906;6.972;2023-10-09T04:36:43;9.90;;;4.50;;
54193;SDS011;40102;50.906;6.972;2023-10-09T04:39:11;8.70;;;5.13;;
54193;SDS011;40102;50.906;6.972;2023-10-09T04:41:37;9.93;;;4.47;;
54193;SDS011;40102;50.906;6.972;2023-10-09T04:44:11;9.07;;;4.45;;
54193;SDS011;40102;50.906;6.972;2023-10-09T04:46:49;10.40;;;5.18;;
54193;SDS011;40102;50.906;6.972;2023-10-09T04:49:39;7.60;;;4.13;;
54193;SDS011;40102;50.906;6.972;2023-10-09T04:52:13;8.60;;;4.18;;
54193;SDS011;40102;50.906;6.972;2023-10-09T04:55:05;8.18;;;4.65;;
54193;SDS011;40102;50.906;6.972;2023-10-09T04:57:37;8.30;;;4.30;;
54193;SDS011;40102;50.906;6.972;2023-10-09T05:00:11;9.32;;;4.63;;
54193;SDS011;40102;50.906;6.972;2023-10-09T05:02:52;10.30;;;4.72;;
54193;SDS011;40102;50.906;6.972;2023-10-09T05:05:32;7.55;;;3.90;;
54193;SDS011;40102;50.906;6.972;2023-10-09T05:08:07;10.82;;;4.70;;
54193;SDS011;40102;50.906;6.972;2023-10-09T05:10:46;7.40;;;4.20;;
54193;SDS011;40102;50.906;6.972;2023-10-09T05:13:27;6.57;;;3.80;;
54193;SDS011;40102;50.906;6.972;2023-10-09T05:18:44;7.05;;;4.05;;
54193;SDS011;40102;50.906;6.972;2023-10-09T05:21:26;11.27;;;3.92;;
54193;SDS011;40102;50.906;6.972;2023-10-09T05:23:55;6.45;;;3.88;;
54193;SDS011;40102;50.906;6.972;2023-10-09T05:31:46;6.82;;;3.50;;
54193;SDS011;40102;50.906;6.972;2023-10-09T05:34:22;13.27;;;4.30;;
54193;SDS011;40102;50.906;6.972;2023-10-09T05:37:13;7.78;;;4.32;;
54193;SDS011;40102;50.906;6.972;2023-10-09T05:39:45;7.25;;;4.00;;
54193;SDS011;40102;50.906;6.972;2023-10-09T05:42:32;6.75;;;3.28;;
54193;SDS011;40102;50.906;6.972;2023-10-09T05:50:28;6.35;;;3.63;;
54193;SDS011;40102;50.906;6.972;2023-10-09T05:52:57;6.65;;;3.40;;
54193;SDS011;40102;50.906;6.972;2023-10-09T05:55:23;10.68;;;4.25;;
54193;SDS011;40102;50.906;6.972;2023-10-09T05:57:53;6.82;;;4.05;;
54193;SDS011;40102;50.906;6.972;2023-10-09T06:00:28;6.32;;;3.20;;
54193;SDS011;40102;50.906;6.972;2023-10-09T06:03:12;7.05;;;3.50;;
54193;SDS011;40102;50.906;6.972;2023-10-09T06:05:46;7.32;;;3.50;;
54193;SDS011;40102;50.906;6.972;2023-10-09T06:08:27;6.60;;;3.28;;
54193;SDS011;40102;50.906;6.972;2023-10-09T06:11:07;8.75;;;4.07;;
54193;SDS011;40102;50.906;6.972;2023-10-09T06:13:52;7.18;;;3.50;;
54193;SDS011;40102;50.906;6.972;2023-10-09T06:16:29;6.32;;;3.10;;
54193;SDS011;40102;50.906;6.972;2023-10-09T06:19:06;5.55;;;3.25;;
54193;SDS011;40102;50.906;6.972;2023-10-09T06:21:51;9.88;;;3.08;;
54193;SDS011;40102;50.906;6.972;2023-10-09T06:24:20;6.70;;;3.13;;
54193;SDS011;40102;50.906;6.972;2023-10-09T06:26:48;5.72;;;3.63;;
54193;SDS011;40102;50.906;6.972;2023-10-09T06:29:22;6.10;;;2.97;;
54193;SDS011;40102;50.906;6.972;2023-10-09T06:32:03;5.10;;;3.03;;
54193;SDS011;40102;50.906;6.972;2023-10-09T06:34:45;6.88;;;2.85;;
54193;SDS011;40102;50.906;6.972;2023-10-09T06:37:40;6.50;;;2.88;;
54193;SDS011;40102;50.906;6.972;2023-10-09T06:43:16;5.93;;;3.08;;
54193;SDS011;40102;50.906;6.972;2023-10-09T06:45:51;5.03;;;2.88;;
54193;SDS011;40102;50.906;6.972;2023-10-09T06:48:44;6.30;;;3.10;;
54193;SDS011;40102;50.906;6.972;2023-10-09T06:51:11;5.15;;;2.85;;
54193;SDS011;40102;50.906;6.972;2023-10-09T06:53:40;5.13;;;2.67;;
54193;SDS011;40102;50.906;6.972;2023-10-09T06:56:19;4.80;;;2.40;;
54193;SDS011;40102;50.906;6.972;2023-10-09T07:01:29;4.32;;;2.63;;
54193;SDS011;40102;50.906;6.972;2023-10-09T07:04:04;4.93;;;2.42;;
54193;SDS011;40102;50.906;6.972;2023-10-09T07:07:06;3.92;;;2.20;;
54193;SDS011;40102;50.906;6.972;2023-10-09T07:09:38;4.10;;;2.30;;
54193;SDS011;40102;50.906;6.972;2023-10-09T07:12:29;5.82;;;2.40;;
54193;SDS011;40102;50.906;6.972;2023-10-09T07:14:58;3.72;;;2.25;;
54193;SDS011;40102;50.906;6.972;2023-10-09T07:17:46;5.40;;;2.42;;
54193;SDS011;40102;50.906;6.972;2023-10-09T07:20:11;4.13;;;2.15;;
54193;SDS011;40102;50.906;6.972;2023-10-09T07:22:55;4.32;;;2.38;;
54193;SDS011;40102;50.906;6.972;2023-10-09T07:25:38;4.80;;;2.65;;
54193;SDS011;40102;50.906;6.972;2023-10-09T07:28:19;4.30;;;2.58;;
54193;SDS011;40102;50.906;6.972;2023-10-09T07:31:08;4.38;;;2.95;;
54193;SDS011;40102;50.906;6.972;2023-10-09T07:33:49;5.80;;;2.95;;
54193;SDS011;40102;50.906;6.972;2023-10-09T07:36:25;5.75;;;2.80;;
54193;SDS011;40102;50.906;6.972;2023-10-09T07:39:01;4.65;;;2.80;;
54193;SDS011;40102;50.906;6.972;2023-10-09T07:41:31;5.80;;;2.67;;
54193;SDS011;40102;50.906;6.972;2023-10-09T07:43:57;6.55;;;2.95;;
54193;SDS011;40102;50.906;6.972;2023-10-09T07:46:22;4.93;;;2.90;;
54193;SDS011;40102;50.906;6.972;2023-10-09T07:49:17;4.32;;;2.90;;
54193;SDS011;40102;50.906;6.972;2023-10-09T07:51:52;5.15;;;3.10;;
54193;SDS011;40102;50.906;6.972;2023-10-09T07:54:18;5.15;;;2.75;;
54193;SDS011;40102;50.906;6.972;2023-10-09T07:56:57;5.72;;;2.70;;
54193;SDS011;40102;50.906;6.972;2023-10-09T07:59:34;6.28;;;2.92;;
54193;SDS011;40102;50.906;6.972;2023-10-09T08:02:06;7.28;;;3.03;;
54193;SDS011;40102;50.906;6.972;2023-10-09T08:04:38;5.47;;;2.95;;
54193;SDS011;40102;50.906;6.972;2023-10-09T08:07:13;5.60;;;3.05;;
54193;SDS011;40102;50.906;6.972;2023-10-09T08:09:51;6.25;;;3.20;;
54193;SDS011;40102;50.906;6.972;2023-10-09T08:12:36;4.95;;;2.63;;
54193;SDS011;40102;50.906;6.972;2023-10-09T08:15:22;5.43;;;3.15;;
54193;SDS011;40102;50.906;6.972;2023-10-09T08:17:59;4.82;;;3.00;;
54193;SDS011;40102;50.906;6.972;2023-10-09T08:20:43;6.65;;;2.75;;
54193;SDS011;40102;50.906;6.972;2023-10-09T08:23:27;11.07;;;3.70;;
54193;SDS011;40102;50.906;6.972;2023-10-09T08:26:04;6.40;;;2.88;;
54193;SDS011;40102;50.906;6.972;2023-10-09T08:28:38;7.03;;;3.30;;
54193;SDS011;40102;50.906;6.972;2023-10-09T08:31:10;7.03;;;3.20;;
54193;SDS011;40102;50.906;6.972;2023-10-09T08:33:55;7.47;;;3.47;;
54193;SDS011;40102;50.906;6.972;2023-10-09T08:36:24;6.85;;;3.28;;
54193;SDS011;40102;50.906;6.972;2023-10-09T08:38:53;6.45;;;2.90;;
54193;SDS011;40102;50.906;6.972;2023-10-09T08:43:51;10.18;;;3.42;;
54193;SDS011;40102;50.906;6.972;2023-10-09T08:46:22;6.15;;;3.30;;
54193;SDS011;40102;50.906;6.972;2023-10-09T08:48:47;9.88;;;3.65;;
54193;SDS011;40102;50.906;6.972;2023-10-09T08:51:13;6.10;;;3.50;;
54193;SDS011;40102;50.906;6.972;2023-10-09T08:53:39;5.68;;;3.42;;
54193;SDS011;40102;50.906;6.972;2023-10-09T08:56:08;6.88;;;3.65;;
54193;SDS011;40102;50.906;6.972;2023-10-09T08:58:35;9.57;;;3.65;;
54193;SDS011;40102;50.906;6.972;2023-10-09T09:01:05;4.75;;;3.08;;
54193;SDS011;40102;50.906;6.972;2023-10-09T09:03:37;8.10;;;3.58;;
54193;SDS011;40102;50.906;6.972;2023-10-09T09:06:04;6.38;;;3.53;;
54193;SDS011;40102;50.906;6.972;2023-10-09T09:08:33;8.13;;;3.10;;
54193;SDS011;40102;50.906;6.972;2023-10-09T09:11:03;7.63;;;3.78;;
54193;SDS011;40102;50.906;6.972;2023-10-09T09:14:04;8.40;;;3.50;;
54193;SDS011;40102;50.906;6.972;2023-10-09T09:16:32;5.53;;;3.42;;
54193;SDS011;40102;50.906;6.972;2023-10-09T09:21:28;8.40;;;3.97;;
54193;SDS011;40102;50.906;6.972;2023-10-09T09:23:55;12.40;;;4.25;;
54193;SDS011;40102;50.906;6.972;2023-10-09T09:26:36;9.57;;;3.55;;
54193;SDS011;40102;50.906;6.972;2023-10-09T09:29:06;6.18;;;3.03;;
54193;SDS011;40102;50.906;6.972;2023-10-09T09:31:34;8.70;;;3.83;;
54193;SDS011;40102;50.906;6.972;2023-10-09T09:34:06;5.57;;;3.33;;
54193;SDS011;40102;50.906;6.972;2023-10-09T09:36:51;7.13;;;3.55;;
54193;SDS011;40102;50.906;6.972;2023-10-09T09:39:21;6.55;;;3.72;;
54193;SDS011;40102;50.906;6.972;2023-10-09T09:41:56;7.35;;;4.05;;
54193;SDS011;40102;50.906;6.972;2023-10-09T09:46:56;7.03;;;3.25;;
54193;SDS011;40102;50.906;6.972;2023-10-09T09:49:25;7.97;;;4.43;;
54193;SDS011;40102;50.906;6.972;2023-10-09T09:51:57;7.50;;;3.97;;
54193;SDS011;40102;50.906;6.972;2023-10-09T09:54:26;7.30;;;3.75;;
54193;SDS011;40102;50.906;6.972;2023-10-09T09:56:53;9.52;;;4.20;;
54193;SDS011;40102;50.906;6.972;2023-10-09T09:59:19;8.20;;;3.88;;
54193;SDS011;40102;50.906;6.972;2023-10-09T10:01:52;7.47;;;3.67;;
54193;SDS011;40102;50.906;6.972;2023-10-09T10:04:31;9.38;;;3.97;;
54193;SDS011;40102;50.906;6.972;2023-10-09T10:07:00;6.82;;;3.83;;
54193;SDS011;40102;50.906;6.972;2023-10-09T10:09:34;7.80;;;3.78;;
54193;SDS011;40102;50.906;6.972;2023-10-09T10:12:03;7.70;;;4.18;;
54193;SDS011;40102;50.906;6.972;2023-10-09T10:17:15;6.93;;;3.80;;
54193;SDS011;40102;50.906;6.972;2023-10-09T10:20:04;9.60;;;3.80;;
54193;SDS011;40102;50.906;6.972;2023-10-09T10:22:43;8.77;;;3.97;;
54193;SDS011;40102;50.906;6.972;2023-10-09T10:31:07;8.00;;;3.53;;
54193;SDS011;40102;50.906;6.972;2023-10-09T10:36:22;8.20;;;3.33;;
54193;SDS011;40102;50.906;6.972;2023-10-09T10:39:06;8.05;;;3.30;;
54193;SDS011;40102;50.906;6.972;2023-10-09T10:41:36;7.38;;;3.38;;
54193;SDS011;40102;50.906;6.972;2023-10-09T10:47:04;6.60;;;3.25;;
54193;SDS011;40102;50.906;6.972;2023-10-09T10:49:46;6.43;;;3.40;;
54193;SDS011;40102;50.906;6.972;2023-10-09T10:52:22;5.43;;;2.80;;
54193;SDS011;40102;50.906;6.972;2023-10-09T10:55:09;6.72;;;3.30;;
54193;SDS011;40102;50.906;6.972;2023-10-09T10:58:00;5.35;;;2.67;;
54193;SDS011;40102;50.906;6.972;2023-10-09T11:00:26;5.55;;;2.72;;
54193;SDS011;40102;50.906;6.972;2023-10-09T11:03:28;5.65;;;2.90;;
54193;SDS011;40102;50.906;6.972;2023-10-09T11:06:12;7.63;;;3.13;;
54193;SDS011;40102;50.906;6.972;2023-10-09T11:08:58;6.07;;;3.20;;
54193;SDS011;40102;50.906;6.972;2023-10-09T11:11:34;8.43;;;3.22;;
54193;SDS011;40102;50.906;6.972;2023-10-09T11:14:12;7.25;;;3.13;;
54193;SDS011;40102;50.906;6.972;2023-10-09T11:16:48;7.30;;;3.45;;
54193;SDS011;40102;50.906;6.972;2023-10-09T11:19:20;5.78;;;2.80;;
54193;SDS011;40102;50.906;6.972;2023-10-09T11:21:53;6.07;;;3.15;;
54193;SDS011;40102;50.906;6.972;2023-10-09T11:24:31;6.45;;;3.03;;
54193;SDS011;40102;50.906;6.972;2023-10-09T11:27:01;9.65;;;3.30;;
54193;SDS011;40102;50.906;6.972;2023-10-09T11:29:49;6.07;;;2.70;;
54193;SDS011;40102;50.906;6.972;2023-10-09T11:32:19;8.15;;;3.08;;
54193;SDS011;40102;50.906;6.972;2023-10-09T11:34:49;7.15;;;3.05;;
54193;SDS011;40102;50.906;6.972;2023-10-09T11:37:22;7.75;;;3.03;;
54193;SDS011;40102;50.906;6.972;2023-10-09T11:39:55;6.70;;;3.50;;
54193;SDS011;40102;50.906;6.972;2023-10-09T11:42:24;11.02;;;3.20;;
54193;SDS011;40102;50.906;6.972;2023-10-09T11:45:23;5.03;;;2.53;;
54193;SDS011;40102;50.906;6.972;2023-10-09T11:47:54;4.70;;;2.60;;
54193;SDS011;40102;50.906;6.972;2023-10-09T11:50:43;6.85;;;3.40;;
54193;SDS011;40102;50.906;6.972;2023-10-09T11:53:19;7.18;;;2.72;;
54193;SDS011;40102;50.906;6.972;2023-10-09T11:55:47;6.63;;;2.75;;
54193;SDS011;40102;50.906;6.972;2023-10-09T11:58:14;7.72;;;2.38;;
54193;SDS011;40102;50.906;6.972;2023-10-09T12:00:50;7.07;;;2.88;;
54193;SDS011;40102;50.906;6.972;2023-10-09T12:03:27;7.90;;;2.70;;
54193;SDS011;40102;50.906;6.972;2023-10-09T12:06:01;5.40;;;2.78;;
54193;SDS011;40102;50.906;6.972;2023-10-09T12:08:34;6.28;;;2.80;;
54193;SDS011;40102;50.906;6.972;2023-10-09T12:11:01;5.13;;;2.90;;
54193;SDS011;40102;50.906;6.972;2023-10-09T12:13:28;5.07;;;2.53;;
54193;SDS011;40102;50.906;6.972;2023-10-09T12:15:54;5.68;;;2.63;;
54193;SDS011;40102;50.906;6.972;2023-10-09T12:18:19;4.35;;;2.47;;
54193;SDS011;40102;50.906;6.972;2023-10-09T12:20:46;4.85;;;2.80;;
54193;SDS011;40102;50.906;6.972;2023-10-09T12:23:27;4.78;;;2.58;;
54193;SDS011;40102;50.906;6.972;2023-10-09T12:25:53;6.43;;;2.78;;
54193;SDS011;40102;50.906;6.972;2023-10-09T12:28:21;6.15;;;2.83;;
54193;SDS011;40102;50.906;6.972;2023-10-09T12:30:48;7.85;;;3.15;;
54193;SDS011;40102;50.906;6.972;2023-10-09T12:33:16;4.32;;;2.63;;
54193;SDS011;40102;50.906;6.972;2023-10-09T12:35:44;5.47;;;2.70;;
54193;SDS011;40102;50.906;6.972;2023-10-09T12:38:13;4.05;;;2.60;;
54193;SDS011;40102;50.906;6.972;2023-10-09T12:40:43;5.90;;;2.90;;
54193;SDS011;40102;50.906;6.972;2023-10-09T12:43:15;4.38;;;2.60;;
54193;SDS011;40102;50.906;6.972;2023-10-09T12:45:44;6.10;;;2.40;;
54193;SDS011;40102;50.906;6.972;2023-10-09T12:48:13;4.18;;;2.40;;
54193;SDS011;40102;50.906;6.972;2023-10-09T12:50:39;6.07;;;2.78;;
54193;SDS011;40102;50.906;6.972;2023-10-09T12:53:09;5.25;;;2.70;;
54193;SDS011;40102;50.906;6.972;2023-10-09T12:55:36;4.28;;;2.70;;
54193;SDS011;40102;50.906;6.972;2023-10-09T12:58:05;5.93;;;3.00;;
54193;SDS011;40102;50.906;6.972;2023-10-09T13:00:35;4.85;;;2.80;;
54193;SDS011;40102;50.906;6.972;2023-10-09T13:03:09;5.45;;;2.60;;
54193;SDS011;40102;50.906;6.972;2023-10-09T13:05:51;7.03;;;3.05;;
54193;SDS011;40102;50.906;6.972;2023-10-09T13:08:24;5.03;;;3.05;;
54193;SDS011;40102;50.906;6.972;2023-10-09T13:11:10;6.35;;;3.20;;
54193;SDS011;40102;50.906;6.972;2023-10-09T13:13:40;6.40;;;3.20;;
54193;SDS011;40102;50.906;6.972;2023-10-09T13:16:15;5.90;;;2.90;;
54193;SDS011;40102;50.906;6.972;2023-10-09T13:18:53;6.30;;;3.53;;
54193;SDS011;40102;50.906;6.972;2023-10-09T13:21:20;5.03;;;2.80;;
54193;SDS011;40102;50.906;6.972;2023-10-09T13:23:48;7.50;;;2.97;;
54193;SDS011;40102;50.906;6.972;2023-10-09T13:26:18;7.78;;;3.00;;
54193;SDS011;40102;50.906;6.972;2023-10-09T13:28:55;4.70;;;2.88;;
54193;SDS011;40102;50.906;6.972;2023-10-09T13:31:25;5.13;;;2.75;;
54193;SDS011;40102;50.906;6.972;2023-10-09T13:33:57;5.85;;;2.85;;
54193;SDS011;40102;50.906;6.972;2023-10-09T13:36:24;5.18;;;2.42;;
54193;SDS011;40102;50.906;6.972;2023-10-09T13:38:57;5.22;;;2.67;;
54193;SDS011;40102;50.906;6.972;2023-10-09T13:41:43;6.18;;;2.92;;
54193;SDS011;40102;50.906;6.972;2023-10-09T13:44:08;6.80;;;2.90;;
54193;SDS011;40102;50.906;6.972;2023-10-09T13:46:34;7.35;;;3.03;;
54193;SDS011;40102;50.906;6.972;2023-10-09T13:49:06;6.50;;;2.90;;
54193;SDS011;40102;50.906;6.972;2023-10-09T13:51:37;6.22;;;2.83;;
54193;SDS011;40102;50.906;6.972;2023-10-09T13:54:10;6.57;;;2.65;;
54193;SDS011;40102;50.906;6.972;2023-10-09T13:56:35;4.93;;;2.80;;
54193;SDS011;40102;50.906;6.972;2023-10-09T13:59:04;9.00;;;3.30;;
54193;SDS011;40102;50.906;6.972;2023-10-09T14:01:35;5.25;;;2.70;;
54193;SDS011;40102;50.906;6.972;2023-10-09T14:04:01;7.35;;;3.47;;
54193;SDS011;40102;50.906;6.972;2023-10-09T14:06:31;8.65;;;2.78;;
54193;SDS011;40102;50.906;6.972;2023-10-09T14:08:57;5.70;;;3.30;;
54193;SDS011;40102;50.906;6.972;2023-10-09T14:11:24;6.25;;;3.00;;
54193;SDS011;40102;50.906;6.972;2023-10-09T14:13:50;6.28;;;3.10;;
54193;SDS011;40102;50.906;6.972;2023-10-09T14:16:16;5.10;;;2.90;;
54193;SDS011;40102;50.906;6.972;2023-10-09T14:18:55;10.10;;;3.67;;
54193;SDS011;40102;50.906;6.972;2023-10-09T14:21:29;6.40;;;2.88;;
54193;SDS011;40102;50.906;6.972;2023-10-09T14:23:58;8.00;;;3.10;;
54193;SDS011;40102;50.906;6.972;2023-10-09T14:26:25;4.93;;;2.78;;
54193;SDS011;40102;50.906;6.972;2023-10-09T14:28:57;6.00;;;3.28;;
54193;SDS011;40102;50.906;6.972;2023-10-09T14:31:23;8.13;;;3.45;;
54193;SDS011;40102;50.906;6.972;2023-10-09T14:33:53;7.75;;;3.20;;
54193;SDS011;40102;50.906;6.972;2023-10-09T14:36:20;6.03;;;3.20;;
54193;SDS011;40102;50.906;6.972;2023-10-09T14:38:47;5.65;;;3.00;;
54193;SDS011;40102;50.906;6.972;2023-10-09T14:41:18;5.25;;;3.40;;
54193;SDS011;40102;50.906;6.972;2023-10-09T14:43:47;6.45;;;3.55;;
54193;SDS011;40102;50.906;6.972;2023-10-09T14:46:13;5.60;;;3.28;;
54193;SDS011;40102;50.906;6.972;2023-10-09T14:48:39;6.50;;;3.28;;
54193;SDS011;40102;50.906;6.972;2023-10-09T14:51:06;6.95;;;3.15;;
54193;SDS011;40102;50.906;6.972;2023-10-09T14:53:35;6.00;;;3.45;;
54193;SDS011;40102;50.906;6.972;2023-10-09T14:56:00;11.60;;;4.13;;
54193;SDS011;40102;50.906;6.972;2023-10-09T14:58:29;8.30;;;3.42;;
54193;SDS011;40102;50.906;6.972;2023-10-09T15:00:57;7.45;;;3.28;;
54193;SDS011;40102;50.906;6.972;2023-10-09T15:03:34;7.57;;;3.28;;
54193;SDS011;40102;50.906;6.972;2023-10-09T15:06:02;5.93;;;3.45;;
54193;SDS011;40102;50.906;6.972;2023-10-09T15:08:28;8.93;;;4.00;;
54193;SDS011;40102;50.906;6.972;2023-10-09T15:10:54;7.53;;;3.95;;
54193;SDS011;40102;50.906;6.972;2023-10-09T15:13:21;12.93;;;4.32;;
54193;SDS011;40102;50.906;6.972;2023-10-09T15:15:53;7.70;;;3.58;;
54193;SDS011;40102;50.906;6.972;2023-10-09T15:18:19;7.75;;;3.28;;
54193;SDS011;40102;50.906;6.972;2023-10-09T15:20:46;8.52;;;3.60;;
54193;SDS011;40102;50.906;6.972;2023-10-09T15:23:12;7.38;;;3.70;;
54193;SDS011;40102;50.906;6.972;2023-10-09T15:25:37;10.40;;;3.85;;
54193;SDS011;40102;50.906;6.972;2023-10-09T15:28:05;6.40;;;3.45;;
54193;SDS011;40102;50.906;6.972;2023-10-09T15:30:32;7.47;;;3.58;;
54193;SDS011;40102;50.906;6.972;2023-10-09T15:32:58;6.93;;;4.20;;
54193;SDS011;40102;50.906;6.972;2023-10-09T15:35:24;7.88;;;3.45;;
54193;SDS011;40102;50.906;6.972;2023-10-09T15:37:49;6.90;;;3.80;;
54193;SDS011;40102;50.906;6.972;2023-10-09T15:40:17;9.07;;;3.97;;
54193;SDS011;40102;50.906;6.972;2023-10-09T15:42:44;7.22;;;3.67;;
54193;SDS011;40102;50.906;6.972;2023-10-09T15:45:14;8.10;;;3.97;;
54193;SDS011;40102;50.906;6.972;2023-10-09T15:47:46;7.43;;;3.40;;
54193;SDS011;40102;50.906;6.972;2023-10-09T15:50:12;9.45;;;3.60;;
54193;SDS011;40102;50.906;6.972;2023-10-09T15:52:39;8.00;;;3.50;;
54193;SDS011;40102;50.906;6.972;2023-10-09T15:55:05;7.55;;;3.45;;
54193;SDS011;40102;50.906;6.972;2023-10-09T15:57:50;6.22;;;2.97;;
54193;SDS011;40102;50.906;6.972;2023-10-09T16:00:19;7.60;;;3.47;;
54193;SDS011;40102;50.906;6.972;2023-10-09T16:02:46;6.60;;;3.47;;
54193;SDS011;40102;50.906;6.972;2023-10-09T16:05:13;9.18;;;3.95;;
54193;SDS011;40102;50.906;6.972;2023-10-09T16:07:41;6.45;;;3.38;;
54193;SDS011;40102;50.906;6.972;2023-10-09T16:10:07;8.02;;;3.47;;